Time;durP1;ratioP1;P1;durP2;ratioP2;P2;SDS_P1;SDS_P2;PMS_P1;PMS_P2;Temp;Humidity;BMP_temperature;BMP_pressure;BME280_temperature;BME280_humidity;BME280_pressure;Samples;Min_cycle;Max_cycle;Signal;HPM_P1;HPM_P2
2023/06/27 00:01:39;;;;;;;5.20;4.20;;;;;;;18.79;62.48;93813.09;5020326;28;20055;-73
2023/06/27 00:04:06;;;;;;;6.25;4.53;;;;;;;18.79;62.45;93818.50;5013767;28;20932;-73
2023/06/27 00:06:31;;;;;;;8.65;4.90;;;;;;;18.89;62.01;93823.25;5015813;28;20038;-73
2023/06/27 00:08:57;;;;;;;6.20;5.32;;;;;;;18.93;61.78;93820.59;5011676;28;20049;-71
2023/06/27 00:11:23;;;;;;;6.90;5.03;;;;;;;18.87;61.78;93825.50;5014884;28;20037;-73
2023/06/27 00:13:49;;;;;;;6.97;5.20;;;;;;;18.87;61.77;93825.50;5010979;28;20127;-73
2023/06/27 00:16:15;;;;;;;12.35;5.38;;;;;;;18.98;61.27;93824.88;5014676;28;20047;-73
2023/06/27 00:18:42;;;;;;;6.68;4.28;;;;;;;18.92;61.47;93810.19;5033473;28;20056;-75
2023/06/27 00:21:07;;;;;;;7.72;4.82;;;;;;;18.92;61.52;93810.19;5035514;28;20495;-73
2023/06/27 00:23:33;;;;;;;9.10;4.55;;;;;;;18.83;61.33;93797.75;5025449;28;20440;-71
2023/06/27 00:26:00;;;;;;;7.93;4.68;;;;;;;18.92;60.68;93799.41;5024811;28;20044;-73
2023/06/27 00:28:26;;;;;;;6.82;5.25;;;;;;;19.02;60.89;93820.34;5032943;28;20059;-73
2023/06/27 00:30:52;;;;;;;6.70;5.00;;;;;;;19.03;60.57;93817.25;5033249;28;20075;-73
2023/06/27 00:33:17;;;;;;;6.95;5.00;;;;;;;18.97;59.81;93801.78;5047988;28;20029;-74
2023/06/27 00:35:43;;;;;;;5.40;3.80;;;;;;;19.04;59.72;93820.72;5031799;28;20492;-73
2023/06/27 00:38:08;;;;;;;6.32;4.90;;;;;;;19.00;59.60;93806.44;5033419;28;20033;-73
2023/06/27 00:40:33;;;;;;;5.78;4.45;;;;;;;18.99;59.60;93808.34;5031405;28;20926;-72
2023/06/27 00:42:59;;;;;;;6.25;4.60;;;;;;;19.04;59.29;93810.72;5031281;28;20036;-73
2023/06/27 00:45:24;;;;;;;6.00;5.00;;;;;;;19.07;59.37;93807.28;5033427;28;20385;-72
2023/06/27 00:47:53;;;;;;;6.57;4.40;;;;;;;19.04;59.01;93804.56;5029850;28;20451;-73
2023/06/27 00:50:23;;;;;;;6.90;4.35;;;;;;;19.09;59.30;93812.31;5028640;28;20191;-71
2023/06/27 00:52:49;;;;;;;5.15;4.28;;;;;;;19.08;59.64;93805.38;5034130;28;20029;-73
2023/06/27 00:55:15;;;;;;;6.13;4.65;;;;;;;19.08;59.27;93802.69;5030757;28;20173;-74
2023/06/27 00:57:42;;;;;;;5.22;4.18;;;;;;;19.03;59.90;93806.47;5032776;28;20041;-73
2023/06/27 01:00:11;;;;;;;5.70;4.45;;;;;;;19.02;60.16;93809.56;5032896;28;20059;-73
2023/06/27 01:02:37;;;;;;;6.13;3.80;;;;;;;18.88;60.66;93800.13;5029903;28;20421;-72
2023/06/27 01:05:03;;;;;;;6.15;4.15;;;;;;;18.80;61.18;93811.19;5031040;28;20091;-74
2023/06/27 01:07:37;;;;;;;5.35;3.53;;;;;;;18.75;61.39;93809.59;5029283;28;20036;-74
2023/06/27 01:10:13;;;;;;;5.35;3.63;;;;;;;18.74;61.51;93810.72;5024661;28;20048;-73
2023/06/27 01:12:48;;;;;;;16.20;4.93;;;;;;;18.67;61.60;93801.75;5031972;28;20099;-73
2023/06/27 01:15:13;;;;;;;;;;;;;;;18.69;61.40;93811.00;5034664;28;20037;-72
2023/06/27 01:17:40;;;;;;;5.53;3.97;;;;;;;18.69;61.47;93808.31;5030836;28;19924;-73
2023/06/27 01:20:07;;;;;;;6.38;3.75;;;;;;;18.60;61.60;93802.41;5030026;28;20041;-73
2023/06/27 01:22:37;;;;;;;7.07;3.65;;;;;;;18.58;61.39;93783.13;5029322;28;20086;-72
2023/06/27 01:25:06;;;;;;;9.45;5.68;;;;;;;18.60;61.54;93802.41;5032178;28;20495;-73
2023/06/27 01:27:33;;;;;;;5.30;3.95;;;;;;;18.56;61.27;93806.97;5033198;28;20032;-74
2023/06/27 01:29:58;;;;;;;8.75;4.25;;;;;;;18.40;61.31;93790.19;5030487;28;20657;-73
2023/06/27 01:32:34;;;;;;;5.25;3.58;;;;;;;18.51;60.97;93801.91;5031216;28;20210;-72
2023/06/27 01:35:12;;;;;;;8.57;4.88;;;;;;;18.40;61.32;93801.75;5030217;28;20409;-73
2023/06/27 01:37:50;;;;;;;5.20;3.85;;;;;;;18.27;61.89;93789.63;5031654;28;20128;-72
2023/06/27 01:40:20;;;;;;;6.75;4.38;;;;;;;18.33;61.99;93800.88;5029747;28;20155;-73
2023/06/27 01:42:55;;;;;;;10.32;4.20;;;;;;;18.28;61.77;93804.66;5032343;28;20067;-71
2023/06/27 01:45:23;;;;;;;4.90;4.13;;;;;;;18.29;61.92;93794.63;5029513;28;20029;-73
2023/06/27 01:47:48;;;;;;;8.40;4.68;;;;;;;18.31;61.71;93805.81;5031833;28;20036;-73
2023/06/27 01:50:14;;;;;;;8.20;4.45;;;;;;;18.15;61.91;93792.50;5029800;28;20045;-73
2023/06/27 01:52:40;;;;;;;8.88;4.63;;;;;;;18.18;61.74;93799.09;5031806;28;20032;-73
2023/06/27 01:55:06;;;;;;;6.22;3.92;;;;;;;18.22;61.50;93797.22;5027223;28;20166;-74
2023/06/27 01:57:31;;;;;;;6.60;4.50;;;;;;;18.20;61.68;93802.97;5031753;28;20519;-73
2023/06/27 01:59:57;;;;;;;5.47;3.95;;;;;;;18.10;61.58;93787.44;5031460;28;20416;-73
2023/06/27 02:02:22;;;;;;;8.65;4.55;;;;;;;18.05;62.15;93787.72;5028589;28;20049;-73
2023/06/27 02:04:47;;;;;;;11.00;4.38;;;;;;;18.07;62.11;93798.91;5030083;28;20041;-72
2023/06/27 02:07:13;;;;;;;8.32;4.07;;;;;;;17.87;62.54;93781.25;5030314;28;20072;-73
2023/06/27 02:09:39;;;;;;;8.82;4.47;;;;;;;17.97;62.39;93805.69;5030280;28;20797;-74
2023/06/27 02:12:05;;;;;;;8.50;5.40;;;;;;;17.99;62.36;93811.47;5029262;28;20096;-72
2023/06/27 02:14:31;;;;;;;8.73;5.05;;;;;;;18.02;62.37;93808.06;5029585;28;20032;-72
2023/06/27 02:16:56;;;;;;;8.32;4.85;;;;;;;18.01;62.08;93816.50;5029094;28;20041;-74
2023/06/27 02:19:22;;;;;;;5.68;5.00;;;;;;;17.91;62.28;93804.41;5030768;28;20569;-73
2023/06/27 02:21:49;;;;;;;7.13;5.03;;;;;;;17.96;62.29;93809.50;5031984;28;20025;-73
2023/06/27 02:24:14;;;;;;;4.72;4.20;;;;;;;17.98;62.21;93807.25;5030547;28;20033;-72
2023/06/27 02:26:40;;;;;;;7.55;4.80;;;;;;;17.98;62.23;93811.84;5030479;28;20110;-73
2023/06/27 02:29:05;;;;;;;6.78;4.80;;;;;;;17.99;62.13;93813.41;5028053;28;20037;-74
2023/06/27 02:31:31;;;;;;;7.53;4.95;;;;;;;17.96;62.24;93812.19;5031629;28;20040;-73
2023/06/27 02:33:56;;;;;;;7.63;4.68;;;;;;;17.88;62.25;93796.28;5029274;28;20037;-73
2023/06/27 02:36:22;;;;;;;6.97;4.72;;;;;;;17.77;62.22;93785.31;5030520;28;20029;-71
2023/06/27 02:38:49;;;;;;;9.18;4.80;;;;;;;17.86;62.44;93810.06;5029984;28;20516;-74
2023/06/27 02:41:14;;;;;;;6.82;4.93;;;;;;;17.90;62.08;93810.91;5025005;28;20037;-74
2023/06/27 02:43:40;;;;;;;11.95;4.82;;;;;;;17.86;61.70;93802.00;5026576;28;20029;-73
2023/06/27 02:46:06;;;;;;;8.23;4.93;;;;;;;17.91;62.16;93812.47;5031645;28;20511;-73
2023/06/27 02:48:31;;;;;;;7.90;5.35;;;;;;;17.73;62.42;93789.88;5027700;28;20133;-73
2023/06/27 02:50:57;;;;;;;7.60;4.22;;;;;;;17.74;62.54;93796.81;5030021;28;20144;-73
2023/06/27 02:53:22;;;;;;;6.65;4.88;;;;;;;17.85;61.96;93800.44;5029580;28;20894;-73
2023/06/27 02:55:48;;;;;;;7.03;4.78;;;;;;;17.95;62.06;93813.31;5031066;28;20480;-72
2023/06/27 02:58:14;;;;;;;11.00;5.10;;;;;;;17.88;62.20;93812.41;5026023;28;20044;-73
2023/06/27 03:00:43;;;;;;;9.35;5.07;;;;;;;17.90;62.09;93815.50;5032483;28;20024;-73
2023/06/27 03:03:08;;;;;;;6.78;5.10;;;;;;;17.92;62.18;93814.03;5030797;28;20436;-74
2023/06/27 03:05:34;;;;;;;8.32;4.70;;;;;;;17.77;62.21;93796.09;5030330;28;20038;-73
2023/06/27 03:07:59;;;;;;;5.82;5.15;;;;;;;17.83;62.49;93810.03;5036626;28;20574;-74
2023/06/27 03:10:25;;;;;;;7.20;5.57;;;;;;;17.84;62.61;93814.28;5033849;28;20048;-72
2023/06/27 03:12:50;;;;;;;5.13;4.43;;;;;;;17.78;62.90;93813.00;5033098;28;20049;-73
2023/06/27 03:15:16;;;;;;;7.50;5.25;;;;;;;17.79;63.02;93820.72;5034196;28;20068;-72
2023/06/27 03:17:41;;;;;;;6.28;4.97;;;;;;;17.66;63.57;93797.81;5034424;28;20063;-73
2023/06/27 03:20:07;;;;;;;8.38;5.75;;;;;;;17.82;63.39;93811.94;5032913;28;20156;-74
2023/06/27 03:22:32;;;;;;;7.72;5.47;;;;;;;17.82;63.44;93809.25;5033870;28;20086;-74
2023/06/27 03:24:58;;;;;;;6.05;5.38;;;;;;;17.86;63.78;93815.44;5035506;28;20729;-73
2023/06/27 03:27:26;;;;;;;7.38;5.88;;;;;;;17.86;64.00;93811.97;5034146;28;20029;-73
2023/06/27 03:29:52;;;;;;;8.18;4.88;;;;;;;17.88;64.15;93807.81;5035920;28;20170;-74
2023/06/27 03:32:17;;;;;;;8.30;4.97;;;;;;;17.88;63.99;93807.81;5033238;28;20033;-72
2023/06/27 03:34:43;;;;;;;7.75;5.65;;;;;;;18.03;64.13;93815.03;5034704;28;20043;-73
2023/06/27 03:37:09;;;;;;;10.23;6.72;;;;;;;18.01;64.00;93809.22;5032107;28;20107;-72
2023/06/27 03:39:35;;;;;;;10.00;6.15;;;;;;;18.04;64.33;93807.69;5030517;28;20025;-73
2023/06/27 03:42:00;;;;;;;6.15;5.47;;;;;;;18.09;64.29;93812.03;5031775;28;20034;-72
2023/06/27 03:44:28;;;;;;;7.80;6.05;;;;;;;18.03;64.50;93801.56;5035795;28;20033;-75
2023/06/27 03:46:53;;;;;;;7.25;5.82;;;;;;;18.18;64.84;93807.16;5037700;28;20191;-74
2023/06/27 03:49:18;;;;;;;9.20;7.18;;;;;;;18.30;64.55;93817.72;5039713;28;20418;-75
2023/06/27 03:51:44;;;;;;;9.18;6.50;;;;;;;18.19;64.77;93796.03;5033609;28;20028;-74
2023/06/27 03:54:11;;;;;;;8.23;5.75;;;;;;;18.40;64.96;93811.72;5035463;28;20115;-72
2023/06/27 03:56:36;;;;;;;9.75;6.35;;;;;;;18.47;65.03;93822.63;5034512;28;20522;-73
2023/06/27 03:59:02;;;;;;;10.70;6.93;;;;;;;18.59;64.95;93825.09;5031840;28;20036;-70
2023/06/27 04:01:28;;;;;;;8.48;6.93;;;;;;;18.56;64.96;93815.06;5033583;28;20707;-74
2023/06/27 04:03:53;;;;;;;11.40;7.80;;;;;;;18.73;65.16;93833.41;5032703;28;20029;-73
2023/06/27 04:06:18;;;;;;;9.15;7.68;;;;;;;18.85;64.73;93833.19;5034118;28;20021;-74
2023/06/27 04:08:44;;;;;;;13.02;8.13;;;;;;;18.92;64.17;93832.50;5030317;28;20045;-74
2023/06/27 04:11:10;;;;;;;10.63;8.20;;;;;;;18.84;63.95;93823.56;5032574;28;20556;-72
2023/06/27 04:13:36;;;;;;;16.48;9.32;;;;;;;18.58;64.71;93837.00;5032383;28;20504;-73
2023/06/27 04:16:01;;;;;;;12.70;8.98;;;;;;;18.68;64.54;93841.00;5029897;28;20037;-73
2023/06/27 04:18:26;;;;;;;13.68;8.35;;;;;;;18.87;64.31;93840.94;5033666;28;20039;-73
2023/06/27 04:20:52;;;;;;;11.98;9.30;;;;;;;18.99;64.05;93848.00;5032151;28;20907;-75
2023/06/27 04:23:17;;;;;;;14.10;8.00;;;;;;;18.93;61.83;93831.38;5034408;28;20030;-74
2023/06/27 04:25:44;;;;;;;11.13;7.00;;;;;;;19.14;60.22;93844.34;5038380;28;20033;-75
2023/06/27 04:28:09;;;;;;;11.18;7.10;;;;;;;18.80;61.34;93836.22;5035776;28;20473;-75
2023/06/27 04:30:35;;;;;;;11.02;7.05;;;;;;;18.88;61.33;93845.94;5035310;28;20025;-75
2023/06/27 04:33:03;;;;;;;10.05;6.95;;;;;;;18.75;60.55;93841.91;5037726;28;20074;-74
2023/06/27 04:35:28;;;;;;;10.85;7.45;;;;;;;18.70;60.96;93847.63;5029352;28;20040;-75
2023/06/27 04:37:54;;;;;;;10.18;7.50;;;;;;;18.52;61.91;93830.41;5032528;28;20037;-74
2023/06/27 04:40:20;;;;;;;11.95;7.63;;;;;;;18.68;63.09;93836.38;5031864;28;20041;-75
2023/06/27 04:42:45;;;;;;;11.43;6.95;;;;;;;18.88;63.02;93843.25;5033889;28;20037;-74
2023/06/27 04:45:11;;;;;;;11.70;7.38;;;;;;;19.04;61.26;93847.69;5032134;28;20037;-73
2023/06/27 04:47:36;;;;;;;11.80;7.80;;;;;;;19.02;61.33;93841.91;5033134;28;20553;-74
2023/06/27 04:50:05;;;;;;;13.18;8.88;;;;;;;18.79;63.17;93850.81;5034816;28;20508;-73
2023/06/27 04:52:31;;;;;;;9.13;8.02;;;;;;;19.01;62.83;93851.13;5035044;28;20025;-75
2023/06/27 04:54:56;;;;;;;15.00;9.73;;;;;;;19.24;63.89;93854.50;5031497;28;20037;-74
2023/06/27 04:57:22;;;;;;;11.75;9.25;;;;;;;19.15;63.86;93845.91;5035514;28;20040;-74
2023/06/27 04:59:47;;;;;;;15.25;9.50;;;;;;;19.16;63.88;93842.06;5031316;28;20049;-75
2023/06/27 05:02:13;;;;;;;11.65;9.60;;;;;;;19.30;63.86;93850.34;5033405;28;22408;-75
2023/06/27 05:04:38;;;;;;;12.73;10.02;;;;;;;19.31;63.20;93844.56;5029368;28;20048;-75
2023/06/27 05:07:04;;;;;;;15.73;10.13;;;;;;;19.46;63.03;93845.53;5034120;28;20086;-75
2023/06/27 05:09:30;;;;;;;11.05;9.10;;;;;;;19.57;63.29;93841.03;5031715;28;20051;-73
2023/06/27 05:11:56;;;;;;;14.65;9.48;;;;;;;19.70;63.44;93850.44;5035579;28;20017;-74
2023/06/27 05:14:21;;;;;;;13.88;9.52;;;;;;;19.72;60.96;93837.34;5032291;28;20084;-76
2023/06/27 05:16:47;;;;;;;11.30;9.43;;;;;;;19.82;62.43;93852.09;5030920;28;20037;-74
2023/06/27 05:19:12;;;;;;;13.18;9.60;;;;;;;19.95;62.85;93856.06;5030568;28;20033;-75
2023/06/27 05:21:38;;;;;;;18.38;9.88;;;;;;;20.09;63.00;93858.16;5032517;28;20063;-74
2023/06/27 05:24:05;;;;;;;16.08;11.27;;;;;;;20.20;63.08;93853.66;5034790;28;20028;-74
2023/06/27 05:26:32;;;;;;;16.90;11.25;;;;;;;20.15;63.40;93859.34;5031021;28;20037;-74
2023/06/27 05:28:59;;;;;;;20.23;12.70;;;;;;;20.07;61.63;93846.94;5022790;28;20369;-74
2023/06/27 05:31:26;;;;;;;14.50;11.15;;;;;;;20.21;62.56;93855.19;5033224;28;20108;-75
2023/06/27 05:33:51;;;;;;;17.73;12.10;;;;;;;20.17;61.02;93847.06;5031006;28;20477;-75
2023/06/27 05:36:16;;;;;;;18.65;12.20;;;;;;;20.34;61.52;93856.47;5034412;28;20078;-74
2023/06/27 05:38:42;;;;;;;13.07;10.73;;;;;;;20.43;61.98;93859.66;5033197;28;20079;-74
2023/06/27 05:41:07;;;;;;;15.27;12.25;;;;;;;20.11;61.59;93864.72;5035688;28;20064;-75
2023/06/27 05:43:33;;;;;;;14.85;11.20;;;;;;;20.44;60.52;93861.19;5029403;28;20040;-74
2023/06/27 05:45:58;;;;;;;14.98;11.20;;;;;;;20.38;60.42;93856.50;5032268;28;20049;-75
2023/06/27 05:48:23;;;;;;;18.25;11.55;;;;;;;20.58;59.25;93855.13;5031403;28;20091;-75
2023/06/27 05:50:49;;;;;;;16.65;11.05;;;;;;;20.48;60.51;93859.28;5033932;28;20399;-74
2023/06/27 05:53:14;;;;;;;13.50;11.57;;;;;;;20.55;61.03;93851.25;5031486;28;20056;-75
2023/06/27 05:55:39;;;;;;;18.42;11.82;;;;;;;20.72;60.20;93849.03;5033617;28;20048;-74
2023/06/27 05:58:05;;;;;;;17.98;12.02;;;;;;;20.47;59.10;93860.44;5028461;28;20072;-72
2023/06/27 06:00:30;;;;;;;23.42;11.73;;;;;;;20.49;59.42;93855.44;5031692;28;20029;-75
2023/06/27 06:02:56;;;;;;;19.23;12.50;;;;;;;20.32;61.40;93861.47;5031740;28;20032;-74
2023/06/27 06:05:21;;;;;;;15.00;11.05;;;;;;;20.62;61.12;93866.72;5034377;28;20043;-74
2023/06/27 06:07:46;;;;;;;17.83;12.05;;;;;;;20.72;59.38;93849.03;5026611;28;20092;-75
2023/06/27 06:10:12;;;;;;;12.50;11.20;;;;;;;20.54;57.71;93854.31;5033376;28;20048;-74
2023/06/27 06:12:38;;;;;;;18.83;10.18;;;;;;;20.75;57.54;93850.97;5021462;28;20048;-74
2023/06/27 06:15:04;;;;;;;17.08;9.90;;;;;;;20.92;58.43;93861.94;5028537;28;20027;-75
2023/06/27 06:17:30;;;;;;;18.05;11.57;;;;;;;20.91;58.19;93862.31;5027232;28;20052;-74
2023/06/27 06:19:55;;;;;;;22.45;11.05;;;;;;;20.97;57.34;93850.00;5032658;28;20049;-74
2023/06/27 06:22:21;;;;;;;15.43;8.55;;;;;;;21.14;52.98;93854.72;5027621;28;20032;-73
2023/06/27 06:24:46;;;;;;;17.17;9.40;;;;;;;20.83;54.42;93853.34;5030105;28;20770;-75
2023/06/27 06:27:12;;;;;;;13.63;8.82;;;;;;;21.02;53.11;93857.75;5032801;28;20036;-74
2023/06/27 06:29:37;;;;;;;11.50;8.10;;;;;;;21.08;54.23;93856.22;5031397;28;20029;-75
2023/06/27 06:32:03;;;;;;;11.43;8.15;;;;;;;21.10;53.99;93853.16;5032481;28;20032;-75
2023/06/27 06:34:28;;;;;;;17.02;8.07;;;;;;;21.29;54.15;93861.75;5031945;28;20045;-75
2023/06/27 06:36:54;;;;;;;11.90;7.82;;;;;;;21.54;54.28;93852.97;5032237;28;20828;-73
2023/06/27 06:39:20;;;;;;;15.80;8.10;;;;;;;21.67;53.40;93848.78;5032005;28;20025;-75
2023/06/27 06:41:45;;;;;;;11.23;7.43;;;;;;;21.73;52.55;93841.84;5032330;28;20610;-75
2023/06/27 06:44:11;;;;;;;15.52;7.47;;;;;;;21.67;52.58;93854.19;5033718;28;20148;-75
2023/06/27 06:46:37;;;;;;;14.18;7.75;;;;;;;21.21;54.82;93838.56;5032070;28;20044;-74
2023/06/27 06:49:03;;;;;;;11.35;7.10;;;;;;;21.55;54.78;93849.91;5035735;28;20064;-75
2023/06/27 06:51:28;;;;;;;9.68;7.57;;;;;;;21.72;54.55;93848.41;5035941;28;20500;-75
2023/06/27 06:53:54;;;;;;;10.02;7.07;;;;;;;21.54;53.71;93844.84;5035330;28;20814;-75
2023/06/27 06:56:19;;;;;;;9.18;6.43;;;;;;;21.78;51.44;93838.78;5032322;28;20061;-73
2023/06/27 06:58:44;;;;;;;8.82;6.47;;;;;;;21.81;51.40;93836.06;5035846;28;20538;-74
2023/06/27 07:01:10;;;;;;;6.75;5.28;;;;;;;21.86;50.67;93843.03;5035094;28;20560;-75
2023/06/27 07:03:36;;;;;;;11.32;5.72;;;;;;;21.90;49.02;93837.66;5032863;28;20029;-75
2023/06/27 07:06:01;;;;;;;8.13;6.00;;;;;;;21.90;49.84;93841.13;5034668;28;20029;-75
2023/06/27 07:08:26;;;;;;;11.82;6.45;;;;;;;21.85;48.61;93838.81;5031820;28;20040;-74
2023/06/27 07:10:52;;;;;;;9.48;5.93;;;;;;;21.90;49.58;93846.53;5034625;28;20041;-73
2023/06/27 07:13:17;;;;;;;7.97;6.07;;;;;;;21.95;50.96;93839.97;5033922;28;20574;-75
2023/06/27 07:15:43;;;;;;;7.05;6.05;;;;;;;21.95;50.43;93838.03;5037957;28;20036;-75
2023/06/27 07:18:08;;;;;;;11.90;5.90;;;;;;;21.94;49.37;93841.91;5036440;28;20084;-75
2023/06/27 07:20:34;;;;;;;6.90;5.78;;;;;;;21.86;50.16;93807.84;5036371;28;20564;-75
2023/06/27 07:22:59;;;;;;;11.07;5.18;;;;;;;22.21;49.56;93836.91;5033584;28;20048;-74
2023/06/27 07:25:25;;;;;;;8.80;6.20;;;;;;;22.36;49.19;93840.41;5036961;28;20086;-72
2023/06/27 07:27:50;;;;;;;7.07;6.13;;;;;;;22.00;51.67;93829.53;5034439;28;20038;-75
2023/06/27 07:30:17;;;;;;;11.07;6.30;;;;;;;22.23;50.04;93837.34;5035696;28;20440;-72
2023/06/27 07:32:42;;;;;;;8.45;6.00;;;;;;;22.08;49.82;93841.94;5032156;28;20587;-75
2023/06/27 07:35:08;;;;;;;15.10;7.20;;;;;;;22.17;50.70;93842.31;5035192;28;20080;-74
2023/06/27 07:37:33;;;;;;;7.18;6.22;;;;;;;21.97;50.38;93846.53;5035349;28;20240;-75
2023/06/27 07:39:59;;;;;;;7.03;6.20;;;;;;;21.84;50.70;93845.38;5033772;28;20094;-75
2023/06/27 07:42:25;;;;;;;10.23;6.72;;;;;;;21.66;51.37;93839.88;5032953;28;20072;-73
2023/06/27 07:44:51;;;;;;;10.27;7.32;;;;;;;21.68;53.20;93850.34;5030674;28;20111;-75
2023/06/27 07:47:16;;;;;;;9.93;6.90;;;;;;;21.66;52.38;93839.88;5037492;28;20117;-75
2023/06/27 07:49:42;;;;;;;8.10;6.22;;;;;;;21.51;52.15;93853.75;5034080;28;20032;-75
2023/06/27 07:52:08;;;;;;;8.63;6.25;;;;;;;21.12;53.81;93846.22;5051266;28;20040;-76
2023/06/27 07:54:34;;;;;;;9.82;6.47;;;;;;;21.37;54.80;93852.50;5032744;28;20037;-74
2023/06/27 07:56:59;;;;;;;8.57;6.18;;;;;;;21.37;54.48;93847.09;5035224;28;20029;-76
2023/06/27 07:59:25;;;;;;;9.65;5.95;;;;;;;21.29;54.76;93840.13;5033665;28;20023;-74
2023/06/27 08:01:50;;;;;;;10.35;6.72;;;;;;;21.50;53.49;93844.84;5032658;28;20436;-75
2023/06/27 08:04:16;;;;;;;8.07;6.07;;;;;;;21.56;53.90;93848.00;5026733;28;20505;-75
2023/06/27 08:06:42;;;;;;;9.02;6.63;;;;;;;21.80;52.39;93839.19;5030684;28;20033;-74
2023/06/27 08:09:07;;;;;;;8.10;6.88;;;;;;;21.93;52.89;93837.66;5034904;28;20055;-75
2023/06/27 08:11:33;;;;;;;8.23;6.47;;;;;;;22.06;51.47;93836.09;5037217;28;20033;-74
2023/06/27 08:13:58;;;;;;;9.85;6.70;;;;;;;21.97;50.30;93834.94;5031587;28;20086;-74
2023/06/27 08:16:24;;;;;;;9.00;5.60;;;;;;;22.04;51.19;93835.75;5034835;28;20064;-75
2023/06/27 08:18:49;;;;;;;8.25;6.10;;;;;;;22.31;51.13;93844.28;5036877;28;20102;-74
2023/06/27 08:21:14;;;;;;;10.43;6.45;;;;;;;22.42;50.66;93839.66;5033031;28;20025;-74
2023/06/27 08:23:40;;;;;;;10.85;6.38;;;;;;;22.08;50.10;93836.50;5033270;28;20072;-74
2023/06/27 08:26:05;;;;;;;10.15;5.93;;;;;;;22.14;48.70;93842.31;5034905;28;20044;-74
2023/06/27 08:28:31;;;;;;;11.13;6.57;;;;;;;22.30;49.31;93840.81;5033500;28;20506;-75
2023/06/27 08:30:57;;;;;;;8.68;5.93;;;;;;;22.38;48.80;93838.88;5030698;28;20052;-75
2023/06/27 08:33:23;;;;;;;7.97;5.47;;;;;;;22.14;47.50;93845.81;5036834;28;20596;-74
2023/06/27 08:35:49;;;;;;;7.10;4.80;;;;;;;22.26;46.73;93845.44;5030882;28;20033;-74
2023/06/27 08:38:14;;;;;;;7.28;4.93;;;;;;;22.32;47.18;93834.22;5034416;28;20100;-73
2023/06/27 08:40:42;;;;;;;10.60;5.72;;;;;;;22.43;46.56;93840.44;5033773;28;20040;-76
2023/06/27 08:43:09;;;;;;;7.40;5.15;;;;;;;22.60;47.43;93843.13;5034153;28;20041;-74
2023/06/27 08:45:36;;;;;;;7.15;5.18;;;;;;;22.53;46.66;93831.53;5031256;28;20144;-74
2023/06/27 08:48:05;;;;;;;5.07;4.57;;;;;;;22.61;46.55;93835.78;5033860;28;20017;-75
2023/06/27 08:50:34;;;;;;;5.50;4.80;;;;;;;22.28;45.75;93826.13;5031911;28;20118;-74
2023/06/27 08:53:04;;;;;;;7.28;4.95;;;;;;;22.47;46.16;93819.53;5029468;28;20082;-74
2023/06/27 08:55:41;;;;;;;8.05;4.90;;;;;;;22.43;47.17;93816.06;5029570;28;20103;-71
2023/06/27 08:58:17;;;;;;;9.52;5.20;;;;;;;22.68;46.86;93820.25;5030840;28;20072;-75
2023/06/27 09:00:44;;;;;;;7.63;4.95;;;;;;;22.72;44.67;93825.69;5030767;28;20183;-74
2023/06/27 09:03:11;;;;;;;6.45;5.00;;;;;;;22.85;44.00;93826.06;5030293;28;20139;-74
2023/06/27 09:05:37;;;;;;;9.57;5.22;;;;;;;22.81;43.85;93817.94;5030998;28;20033;-73
2023/06/27 09:08:03;;;;;;;5.50;4.63;;;;;;;22.82;45.54;93819.50;5028252;28;20536;-74
2023/06/27 09:10:29;;;;;;;7.32;4.43;;;;;;;22.56;45.21;93833.44;5030072;28;20160;-74
2023/06/27 09:12:54;;;;;;;6.47;4.50;;;;;;;22.56;45.00;93823.38;5032676;28;20757;-72
2023/06/27 09:15:20;;;;;;;10.48;4.32;;;;;;;22.80;44.12;93821.81;5033487;28;20020;-74
2023/06/27 09:17:47;;;;;;;6.25;4.25;;;;;;;22.71;43.88;93824.16;5030417;28;20079;-74
2023/06/27 09:20:19;;;;;;;5.47;4.68;;;;;;;22.68;42.83;93822.97;5030838;28;20048;-74
2023/06/27 09:22:45;;;;;;;6.53;4.80;;;;;;;22.85;42.95;93821.41;5029140;28;20131;-73
2023/06/27 09:25:14;;;;;;;5.50;4.38;;;;;;;23.01;43.66;93821.81;5033416;28;20049;-72
2023/06/27 09:27:40;;;;;;;5.10;3.88;;;;;;;22.95;43.17;93801.66;5029415;28;20090;-73
2023/06/27 09:30:08;;;;;;;5.75;3.63;;;;;;;23.05;44.69;93817.13;5030651;28;20037;-73
2023/06/27 09:32:35;;;;;;;4.22;3.83;;;;;;;23.13;42.72;93824.06;5030116;28;20552;-72
2023/06/27 09:35:03;;;;;;;6.55;3.90;;;;;;;23.17;41.98;93828.75;5029387;28;20040;-72
2023/06/27 09:37:32;;;;;;;4.95;3.70;;;;;;;22.88;42.67;93828.03;5024555;28;20471;-75
2023/06/27 09:39:58;;;;;;;4.75;3.60;;;;;;;22.90;43.67;93823.75;5028770;28;20075;-73
2023/06/27 09:42:23;;;;;;;4.78;3.90;;;;;;;22.56;42.06;93800.94;5029830;28;20613;-75
2023/06/27 09:44:49;;;;;;;5.95;3.90;;;;;;;22.89;41.93;93824.91;5028215;28;20048;-75
2023/06/27 09:47:14;;;;;;;5.55;3.78;;;;;;;22.98;42.70;93817.13;5030789;28;20063;-73
2023/06/27 09:49:43;;;;;;;7.50;3.45;;;;;;;23.21;43.21;93826.78;5029168;28;20746;-72
2023/06/27 09:52:13;;;;;;;3.92;3.45;;;;;;;23.19;41.69;93829.09;5021716;28;20069;-72
2023/06/27 09:54:43;;;;;;;4.85;3.75;;;;;;;22.99;42.08;93813.28;5024242;28;20036;-76
2023/06/27 09:57:12;;;;;;;9.55;3.75;;;;;;;23.25;41.21;93830.25;5028526;28;20036;-75
2023/06/27 09:59:38;;;;;;;6.32;3.70;;;;;;;23.19;42.09;93829.09;5027750;28;20068;-75
2023/06/27 10:02:03;;;;;;;6.35;3.65;;;;;;;23.36;41.71;93825.56;5030208;28;20124;-75
2023/06/27 10:04:33;;;;;;;6.00;3.45;;;;;;;22.88;41.33;93779.22;5026037;28;20403;-74
2023/06/27 10:06:58;;;;;;;7.10;3.67;;;;;;;23.05;41.63;93830.69;5028688;28;20040;-72
2023/06/27 10:09:23;;;;;;;3.72;3.30;;;;;;;23.21;40.03;93819.41;5029297;28;20049;-75
2023/06/27 10:11:49;;;;;;;4.50;3.35;;;;;;;23.49;39.58;93824.75;5023607;28;20374;-71
2023/06/27 10:14:15;;;;;;;4.43;3.28;;;;;;;23.33;39.88;93821.69;5019044;28;20080;-74
2023/06/27 10:16:43;;;;;;;6.45;3.15;;;;;;;23.69;40.14;93822.34;5009569;28;20556;-74
2023/06/27 10:19:12;;;;;;;8.85;4.13;;;;;;;23.56;39.24;93791.38;5025324;28;20049;-74
2023/06/27 10:21:40;;;;;;;5.22;3.47;;;;;;;23.81;40.97;93813.72;5024766;28;20055;-74
2023/06/27 10:24:06;;;;;;;6.15;3.17;;;;;;;23.81;38.86;93813.72;5020909;28;20579;-73
2023/06/27 10:26:32;;;;;;;4.53;3.05;;;;;;;23.89;38.58;93804.38;5021205;28;20044;-73
2023/06/27 10:28:58;;;;;;;4.82;3.50;;;;;;;23.86;41.21;93788.09;5025399;28;20036;-73
2023/06/27 10:31:53;;;;;;;5.53;3.30;;;;;;;24.02;39.58;93818.25;5040937;28;20040;-73
2023/06/27 10:34:24;;;;;;;4.78;3.80;;;;;;;23.94;36.55;93803.19;5020523;28;20041;-74
2023/06/27 10:37:02;;;;;;;4.60;3.17;;;;;;;23.79;38.31;93802.50;5029643;28;20041;-74
2023/06/27 10:39:33;;;;;;;6.90;3.75;;;;;;;23.92;38.51;93803.56;5028814;28;20059;-72
2023/06/27 10:42:07;;;;;;;7.75;3.35;;;;;;;23.89;37.51;93798.94;5028871;28;20034;-73
2023/06/27 10:44:56;;;;;;;8.07;3.63;;;;;;;23.69;37.80;93799.84;5017678;28;20207;-72
2023/06/27 10:47:22;;;;;;;4.70;3.35;;;;;;;23.87;34.54;93804.00;5030985;28;20048;-74
2023/06/27 10:49:49;;;;;;;3.83;2.80;;;;;;;23.72;33.73;93778.09;5028355;28;20036;-73
2023/06/27 10:52:26;;;;;;;5.32;3.35;;;;;;;23.91;35.30;93791.16;5013745;28;20534;-70
2023/06/27 10:55:15;;;;;;;7.68;3.85;;;;;;;23.66;35.15;93797.94;5021640;28;20041;-74
2023/06/27 10:57:49;;;;;;;4.30;3.03;;;;;;;23.75;35.83;93798.25;5020489;28;20029;-72
2023/06/27 11:00:24;;;;;;;3.85;3.33;;;;;;;23.57;34.96;93801.84;5025904;28;20120;-73
2023/06/27 11:02:52;;;;;;;4.10;3.17;;;;;;;23.60;35.34;93796.78;5031883;28;20037;-73
2023/06/27 11:05:18;;;;;;;3.58;3.10;;;;;;;23.84;35.95;93796.66;5033353;28;20029;-73
2023/06/27 11:07:58;;;;;;;10.02;4.22;;;;;;;23.82;35.46;93785.41;5029973;28;20040;-73
2023/06/27 11:10:29;;;;;;;4.93;3.35;;;;;;;24.09;36.86;93785.63;5021092;28;20135;-71
2023/06/27 11:13:15;;;;;;;5.07;3.33;;;;;;;24.26;35.39;93778.53;5031413;28;20103;-73
2023/06/27 11:15:42;;;;;;;5.65;2.90;;;;;;;23.97;34.82;93784.16;5032059;28;20463;-73
2023/06/27 11:18:08;;;;;;;5.53;3.80;;;;;;;23.71;35.70;93781.97;5034873;28;20049;-73
2023/06/27 11:20:36;;;;;;;3.90;3.50;;;;;;;24.07;36.61;93781.75;5034196;28;20057;-70
2023/06/27 11:23:03;;;;;;;4.28;3.60;;;;;;;24.23;35.98;93782.06;5031302;28;20045;-72
2023/06/27 11:25:36;;;;;;;4.30;3.15;;;;;;;24.20;34.81;93780.91;5030727;28;20124;-73
2023/06/27 11:28:01;;;;;;;4.88;3.63;;;;;;;24.32;37.17;93771.50;5034607;28;20044;-72